sensor_id;sensor_type;location;lat;lon;timestamp;P1;durP1;ratioP1;P2;durP2;ratioP2
53245;SDS011;39569;51.090;-1.786;2024-03-17T00:01:00;4.50;;;4.10;;
53245;SDS011;39569;51.090;-1.786;2024-03-17T00:03:26;6.68;;;4.95;;
53245;SDS011;39569;51.090;-1.786;2024-03-17T00:05:56;7.35;;;4.65;;
53245;SDS011;39569;51.090;-1.786;2024-03-17T00:08:22;4.05;;;3.75;;
53245;SDS011;39569;51.090;-1.786;2024-03-17T00:10:49;6.18;;;3.85;;
53245;SDS011;39569;51.090;-1.786;2024-03-17T00:13:15;5.55;;;3.72;;
53245;SDS011;39569;51.090;-1.786;2024-03-17T00:15:43;3.83;;;3.30;;
53245;SDS011;39569;51.090;-1.786;2024-03-17T00:18:09;4.22;;;3.83;;
53245;SDS011;39569;51.090;-1.786;2024-03-17T00:20:36;5.75;;;3.25;;
53245;SDS011;39569;51.090;-1.786;2024-03-17T00:23:05;7.18;;;3.83;;
53245;SDS011;39569;51.090;-1.786;2024-03-17T00:25:33;3.65;;;3.15;;
53245;SDS011;39569;51.090;-1.786;2024-03-17T00:27:59;5.00;;;3.75;;
53245;SDS011;39569;51.090;-1.786;2024-03-17T00:30:26;5.15;;;3.97;;
53245;SDS011;39569;51.090;-1.786;2024-03-17T00:32:52;7.70;;;3.88;;
53245;SDS011;39569;51.090;-1.786;2024-03-17T00:35:18;8.45;;;5.03;;
53245;SDS011;39569;51.090;-1.786;2024-03-17T00:37:46;5.68;;;4.05;;
53245;SDS011;39569;51.090;-1.786;2024-03-17T00:40:14;4.75;;;4.20;;
53245;SDS011;39569;51.090;-1.786;2024-03-17T00:42:41;6.00;;;4.57;;
53245;SDS011;39569;51.090;-1.786;2024-03-17T00:45:07;10.25;;;5.38;;
53245;SDS011;39569;51.090;-1.786;2024-03-17T00:47:35;15.02;;;5.82;;
53245;SDS011;39569;51.090;-1.786;2024-03-17T00:50:01;5.95;;;5.43;;
53245;SDS011;39569;51.090;-1.786;2024-03-17T00:52:29;8.05;;;6.57;;
53245;SDS011;39569;51.090;-1.786;2024-03-17T00:54:55;12.05;;;7.15;;
53245;SDS011;39569;51.090;-1.786;2024-03-17T00:57:23;7.32;;;5.43;;
53245;SDS011;39569;51.090;-1.786;2024-03-17T00:59:49;6.90;;;5.70;;
53245;SDS011;39569;51.090;-1.786;2024-03-17T01:02:17;6.82;;;6.18;;
53245;SDS011;39569;51.090;-1.786;2024-03-17T01:04:43;10.05;;;6.78;;
53245;SDS011;39569;51.090;-1.786;2024-03-17T01:07:11;11.60;;;6.60;;
53245;SDS011;39569;51.090;-1.786;2024-03-17T01:09:37;7.15;;;6.50;;
53245;SDS011;39569;51.090;-1.786;2024-03-17T01:12:04;8.40;;;6.25;;
53245;SDS011;39569;51.090;-1.786;2024-03-17T01:14:32;9.27;;;5.97;;
53245;SDS011;39569;51.090;-1.786;2024-03-17T01:16:59;8.15;;;5.80;;
53245;SDS011;39569;51.090;-1.786;2024-03-17T01:19:26;7.35;;;4.82;;
53245;SDS011;39569;51.090;-1.786;2024-03-17T01:21:52;10.07;;;6.70;;
53245;SDS011;39569;51.090;-1.786;2024-03-17T01:24:18;6.15;;;4.47;;
53245;SDS011;39569;51.090;-1.786;2024-03-17T01:26:45;6.07;;;4.80;;
53245;SDS011;39569;51.090;-1.786;2024-03-17T01:29:11;6.45;;;5.05;;
53245;SDS011;39569;51.090;-1.786;2024-03-17T01:31:40;9.38;;;5.75;;
53245;SDS011;39569;51.090;-1.786;2024-03-17T01:34:05;6.22;;;5.28;;
53245;SDS011;39569;51.090;-1.786;2024-03-17T01:36:32;2.90;;;2.17;;
53245;SDS011;39569;51.090;-1.786;2024-03-17T01:38:58;7.82;;;6.28;;
53245;SDS011;39569;51.090;-1.786;2024-03-17T01:41:27;8.95;;;4.13;;
53245;SDS011;39569;51.090;-1.786;2024-03-17T01:43:52;5.70;;;5.13;;
53245;SDS011;39569;51.090;-1.786;2024-03-17T01:46:19;9.88;;;4.85;;
53245;SDS011;39569;51.090;-1.786;2024-03-17T01:48:47;10.20;;;5.38;;
53245;SDS011;39569;51.090;-1.786;2024-03-17T01:51:14;4.30;;;3.95;;
53245;SDS011;39569;51.090;-1.786;2024-03-17T01:53:40;9.10;;;4.63;;
53245;SDS011;39569;51.090;-1.786;2024-03-17T01:56:09;7.47;;;5.25;;
53245;SDS011;39569;51.090;-1.786;2024-03-17T01:58:36;3.75;;;3.33;;
53245;SDS011;39569;51.090;-1.786;2024-03-17T02:01:02;12.98;;;5.07;;
53245;SDS011;39569;51.090;-1.786;2024-03-17T02:03:29;9.70;;;5.35;;
53245;SDS011;39569;51.090;-1.786;2024-03-17T02:05:58;3.42;;;2.80;;
53245;SDS011;39569;51.090;-1.786;2024-03-17T02:08:24;9.85;;;4.22;;
53245;SDS011;39569;51.090;-1.786;2024-03-17T02:10:52;7.57;;;3.78;;
53245;SDS011;39569;51.090;-1.786;2024-03-17T02:13:18;7.63;;;4.45;;
53245;SDS011;39569;51.090;-1.786;2024-03-17T02:15:45;3.95;;;3.30;;
53245;SDS011;39569;51.090;-1.786;2024-03-17T02:18:11;11.15;;;3.45;;
53245;SDS011;39569;51.090;-1.786;2024-03-17T02:20:38;6.88;;;3.42;;
53245;SDS011;39569;51.090;-1.786;2024-03-17T02:23:25;3.67;;;3.38;;
53245;SDS011;39569;51.090;-1.786;2024-03-17T02:25:52;7.15;;;5.30;;
53245;SDS011;39569;51.090;-1.786;2024-03-17T02:28:18;10.02;;;4.25;;
53245;SDS011;39569;51.090;-1.786;2024-03-17T02:30:45;7.85;;;3.72;;
53245;SDS011;39569;51.090;-1.786;2024-03-17T02:33:11;4.72;;;4.22;;
53245;SDS011;39569;51.090;-1.786;2024-03-17T02:35:37;14.70;;;5.00;;
53245;SDS011;39569;51.090;-1.786;2024-03-17T02:38:03;7.80;;;4.25;;
53245;SDS011;39569;51.090;-1.786;2024-03-17T02:40:31;6.32;;;4.05;;
53245;SDS011;39569;51.090;-1.786;2024-03-17T02:42:57;1.42;;;1.33;;
53245;SDS011;39569;51.090;-1.786;2024-03-17T02:45:24;8.40;;;4.28;;
53245;SDS011;39569;51.090;-1.786;2024-03-17T02:47:50;6.50;;;3.25;;
53245;SDS011;39569;51.090;-1.786;2024-03-17T02:50:17;5.68;;;3.70;;
53245;SDS011;39569;51.090;-1.786;2024-03-17T02:52:44;8.73;;;4.20;;
53245;SDS011;39569;51.090;-1.786;2024-03-17T02:55:09;6.43;;;4.68;;
53245;SDS011;39569;51.090;-1.786;2024-03-17T02:57:37;11.43;;;4.88;;
53245;SDS011;39569;51.090;-1.786;2024-03-17T03:00:06;5.68;;;3.15;;
53245;SDS011;39569;51.090;-1.786;2024-03-17T03:02:38;6.85;;;3.53;;
53245;SDS011;39569;51.090;-1.786;2024-03-17T03:05:05;7.70;;;3.75;;
53245;SDS011;39569;51.090;-1.786;2024-03-17T03:07:32;22.80;;;2.75;;
53245;SDS011;39569;51.090;-1.786;2024-03-17T03:09:58;5.57;;;4.18;;
53245;SDS011;39569;51.090;-1.786;2024-03-17T03:12:25;4.68;;;3.17;;
53245;SDS011;39569;51.090;-1.786;2024-03-17T03:14:53;7.70;;;3.75;;
53245;SDS011;39569;51.090;-1.786;2024-03-17T03:17:20;5.45;;;3.83;;
53245;SDS011;39569;51.090;-1.786;2024-03-17T03:19:47;12.85;;;3.22;;
53245;SDS011;39569;51.090;-1.786;2024-03-17T03:22:13;4.30;;;3.70;;
53245;SDS011;39569;51.090;-1.786;2024-03-17T03:24:40;7.97;;;4.07;;
53245;SDS011;39569;51.090;-1.786;2024-03-17T03:27:07;3.47;;;3.08;;
53245;SDS011;39569;51.090;-1.786;2024-03-17T03:29:34;8.05;;;3.42;;
53245;SDS011;39569;51.090;-1.786;2024-03-17T03:32:04;6.15;;;3.63;;
53245;SDS011;39569;51.090;-1.786;2024-03-17T03:34:32;3.50;;;3.22;;
53245;SDS011;39569;51.090;-1.786;2024-03-17T03:36:59;9.30;;;4.15;;
53245;SDS011;39569;51.090;-1.786;2024-03-17T03:39:26;5.95;;;4.10;;
53245;SDS011;39569;51.090;-1.786;2024-03-17T03:41:56;5.53;;;3.05;;
53245;SDS011;39569;51.090;-1.786;2024-03-17T03:44:23;5.60;;;3.60;;
53245;SDS011;39569;51.090;-1.786;2024-03-17T03:46:50;7.80;;;5.38;;
53245;SDS011;39569;51.090;-1.786;2024-03-17T03:49:19;11.63;;;4.07;;
53245;SDS011;39569;51.090;-1.786;2024-03-17T03:51:46;16.48;;;5.38;;
53245;SDS011;39569;51.090;-1.786;2024-03-17T03:54:13;6.22;;;4.68;;
53245;SDS011;39569;51.090;-1.786;2024-03-17T03:56:39;9.80;;;4.05;;
53245;SDS011;39569;51.090;-1.786;2024-03-17T03:59:06;7.60;;;3.75;;
53245;SDS011;39569;51.090;-1.786;2024-03-17T04:01:33;3.35;;;2.92;;
53245;SDS011;39569;51.090;-1.786;2024-03-17T04:03:59;4.65;;;3.35;;
53245;SDS011;39569;51.090;-1.786;2024-03-17T04:06:27;7.70;;;4.20;;
53245;SDS011;39569;51.090;-1.786;2024-03-17T04:08:54;7.28;;;4.57;;
53245;SDS011;39569;51.090;-1.786;2024-03-17T04:11:21;4.55;;;3.63;;
53245;SDS011;39569;51.090;-1.786;2024-03-17T04:13:47;8.15;;;4.63;;
53245;SDS011;39569;51.090;-1.786;2024-03-17T04:16:14;10.07;;;5.43;;
53245;SDS011;39569;51.090;-1.786;2024-03-17T04:18:41;11.13;;;4.25;;
53245;SDS011;39569;51.090;-1.786;2024-03-17T04:21:08;8.90;;;5.22;;
53245;SDS011;39569;51.090;-1.786;2024-03-17T04:23:36;11.80;;;4.65;;
53245;SDS011;39569;51.090;-1.786;2024-03-17T04:26:03;7.13;;;5.28;;
53245;SDS011;39569;51.090;-1.786;2024-03-17T04:28:32;4.70;;;4.30;;
53245;SDS011;39569;51.090;-1.786;2024-03-17T04:31:03;6.93;;;4.32;;
53245;SDS011;39569;51.090;-1.786;2024-03-17T04:33:30;6.50;;;5.45;;
53245;SDS011;39569;51.090;-1.786;2024-03-17T04:35:58;4.80;;;4.18;;
53245;SDS011;39569;51.090;-1.786;2024-03-17T04:38:25;6.72;;;4.68;;
53245;SDS011;39569;51.090;-1.786;2024-03-17T04:40:53;5.85;;;4.28;;
53245;SDS011;39569;51.090;-1.786;2024-03-17T04:43:29;1.52;;;1.45;;
53245;SDS011;39569;51.090;-1.786;2024-03-17T04:46:00;5.43;;;4.93;;
53245;SDS011;39569;51.090;-1.786;2024-03-17T04:48:29;7.60;;;5.57;;
53245;SDS011;39569;51.090;-1.786;2024-03-17T04:50:56;6.60;;;5.57;;
53245;SDS011;39569;51.090;-1.786;2024-03-17T04:53:23;7.00;;;5.40;;
53245;SDS011;39569;51.090;-1.786;2024-03-17T04:55:58;8.63;;;4.40;;
53245;SDS011;39569;51.090;-1.786;2024-03-17T04:58:26;5.35;;;4.15;;
53245;SDS011;39569;51.090;-1.786;2024-03-17T05:00:52;5.20;;;4.05;;
53245;SDS011;39569;51.090;-1.786;2024-03-17T05:03:19;2.33;;;0.75;;
53245;SDS011;39569;51.090;-1.786;2024-03-17T05:05:46;6.47;;;4.97;;
53245;SDS011;39569;51.090;-1.786;2024-03-17T05:08:13;9.00;;;4.13;;
53245;SDS011;39569;51.090;-1.786;2024-03-17T05:10:39;4.75;;;4.30;;
53245;SDS011;39569;51.090;-1.786;2024-03-17T05:13:07;4.60;;;4.13;;
53245;SDS011;39569;51.090;-1.786;2024-03-17T05:15:36;4.05;;;2.28;;
53245;SDS011;39569;51.090;-1.786;2024-03-17T05:18:03;5.60;;;4.13;;
53245;SDS011;39569;51.090;-1.786;2024-03-17T05:20:30;0.95;;;0.95;;
53245;SDS011;39569;51.090;-1.786;2024-03-17T05:22:57;0.90;;;0.90;;
53245;SDS011;39569;51.090;-1.786;2024-03-17T05:25:24;4.68;;;3.63;;
53245;SDS011;39569;51.090;-1.786;2024-03-17T05:27:50;3.22;;;3.03;;
53245;SDS011;39569;51.090;-1.786;2024-03-17T05:30:18;7.03;;;3.97;;
53245;SDS011;39569;51.090;-1.786;2024-03-17T05:32:45;1.38;;;1.33;;
53245;SDS011;39569;51.090;-1.786;2024-03-17T05:35:12;8.07;;;4.13;;
53245;SDS011;39569;51.090;-1.786;2024-03-17T05:37:39;3.97;;;3.30;;
53245;SDS011;39569;51.090;-1.786;2024-03-17T05:40:06;5.18;;;3.05;;
53245;SDS011;39569;51.090;-1.786;2024-03-17T05:42:37;2.78;;;2.67;;
53245;SDS011;39569;51.090;-1.786;2024-03-17T05:45:04;3.38;;;3.00;;
53245;SDS011;39569;51.090;-1.786;2024-03-17T05:47:33;3.13;;;2.83;;
53245;SDS011;39569;51.090;-1.786;2024-03-17T05:49:59;2.83;;;2.53;;
53245;SDS011;39569;51.090;-1.786;2024-03-17T05:52:26;2.80;;;2.70;;
53245;SDS011;39569;51.090;-1.786;2024-03-17T05:54:53;0.93;;;0.93;;
53245;SDS011;39569;51.090;-1.786;2024-03-17T05:57:20;2.72;;;2.53;;
53245;SDS011;39569;51.090;-1.786;2024-03-17T05:59:47;5.53;;;3.38;;
53245;SDS011;39569;51.090;-1.786;2024-03-17T06:02:14;3.40;;;2.70;;
53245;SDS011;39569;51.090;-1.786;2024-03-17T06:04:42;2.33;;;2.22;;
53245;SDS011;39569;51.090;-1.786;2024-03-17T06:07:09;5.10;;;2.10;;
53245;SDS011;39569;51.090;-1.786;2024-03-17T06:09:36;2.38;;;2.10;;
53245;SDS011;39569;51.090;-1.786;2024-03-17T06:12:03;3.22;;;2.95;;
53245;SDS011;39569;51.090;-1.786;2024-03-17T06:14:29;4.03;;;2.97;;
53245;SDS011;39569;51.090;-1.786;2024-03-17T06:16:59;2.38;;;2.17;;
53245;SDS011;39569;51.090;-1.786;2024-03-17T06:19:25;2.22;;;2.13;;
53245;SDS011;39569;51.090;-1.786;2024-03-17T06:21:54;2.17;;;1.92;;
53245;SDS011;39569;51.090;-1.786;2024-03-17T06:24:21;2.72;;;2.58;;
53245;SDS011;39569;51.090;-1.786;2024-03-17T06:26:50;1.95;;;1.85;;
53245;SDS011;39569;51.090;-1.786;2024-03-17T06:29:16;4.43;;;2.20;;
53245;SDS011;39569;51.090;-1.786;2024-03-17T06:31:45;3.15;;;2.45;;
53245;SDS011;39569;51.090;-1.786;2024-03-17T06:34:12;4.60;;;1.85;;
53245;SDS011;39569;51.090;-1.786;2024-03-17T06:36:41;1.52;;;1.27;;
53245;SDS011;39569;51.090;-1.786;2024-03-17T06:39:09;2.63;;;1.52;;
53245;SDS011;39569;51.090;-1.786;2024-03-17T06:41:41;1.77;;;1.52;;
53245;SDS011;39569;51.090;-1.786;2024-03-17T06:44:07;1.77;;;1.48;;
53245;SDS011;39569;51.090;-1.786;2024-03-17T06:46:34;1.60;;;1.50;;
53245;SDS011;39569;51.090;-1.786;2024-03-17T06:49:01;2.63;;;1.95;;
53245;SDS011;39569;51.090;-1.786;2024-03-17T06:51:28;1.60;;;1.20;;
53245;SDS011;39569;51.090;-1.786;2024-03-17T06:53:54;1.60;;;1.50;;
53245;SDS011;39569;51.090;-1.786;2024-03-17T06:56:23;1.63;;;1.52;;
53245;SDS011;39569;51.090;-1.786;2024-03-17T06:58:50;1.48;;;1.42;;
53245;SDS011;39569;51.090;-1.786;2024-03-17T07:01:17;0.40;;;0.40;;
53245;SDS011;39569;51.090;-1.786;2024-03-17T07:03:44;1.40;;;1.38;;
53245;SDS011;39569;51.090;-1.786;2024-03-17T07:06:11;1.38;;;1.38;;
53245;SDS011;39569;51.090;-1.786;2024-03-17T07:08:37;0.90;;;0.90;;
53245;SDS011;39569;51.090;-1.786;2024-03-17T07:11:05;1.10;;;1.08;;
53245;SDS011;39569;51.090;-1.786;2024-03-17T07:13:34;1.27;;;1.27;;
53245;SDS011;39569;51.090;-1.786;2024-03-17T07:16:03;1.25;;;1.15;;
53245;SDS011;39569;51.090;-1.786;2024-03-17T07:18:32;1.30;;;1.02;;
53245;SDS011;39569;51.090;-1.786;2024-03-17T07:20:59;1.70;;;1.60;;
53245;SDS011;39569;51.090;-1.786;2024-03-17T07:23:29;2.05;;;1.30;;
53245;SDS011;39569;51.090;-1.786;2024-03-17T07:25:56;1.23;;;1.20;;
53245;SDS011;39569;51.090;-1.786;2024-03-17T07:28:24;0.93;;;0.93;;
53245;SDS011;39569;51.090;-1.786;2024-03-17T07:30:53;1.10;;;1.10;;
53245;SDS011;39569;51.090;-1.786;2024-03-17T07:33:21;0.73;;;0.73;;
53245;SDS011;39569;51.090;-1.786;2024-03-17T07:35:49;2.25;;;0.80;;
53245;SDS011;39569;51.090;-1.786;2024-03-17T07:38:17;1.00;;;1.00;;
53245;SDS011;39569;51.090;-1.786;2024-03-17T07:40:45;3.63;;;3.33;;
53245;SDS011;39569;51.090;-1.786;2024-03-17T07:43:21;0.95;;;0.95;;
53245;SDS011;39569;51.090;-1.786;2024-03-17T07:45:48;5.60;;;0.65;;
53245;SDS011;39569;51.090;-1.786;2024-03-17T07:48:24;0.50;;;0.50;;
53245;SDS011;39569;51.090;-1.786;2024-03-17T07:50:53;3.25;;;1.50;;
53245;SDS011;39569;51.090;-1.786;2024-03-17T07:53:20;1.08;;;0.98;;
53245;SDS011;39569;51.090;-1.786;2024-03-17T07:55:47;2.83;;;1.73;;
53245;SDS011;39569;51.090;-1.786;2024-03-17T07:58:13;1.27;;;1.20;;
53245;SDS011;39569;51.090;-1.786;2024-03-17T08:00:40;1.25;;;1.17;;
53245;SDS011;39569;51.090;-1.786;2024-03-17T08:03:08;1.05;;;1.05;;
53245;SDS011;39569;51.090;-1.786;2024-03-17T08:05:35;1.25;;;1.00;;
53245;SDS011;39569;51.090;-1.786;2024-03-17T08:08:02;1.83;;;1.73;;
53245;SDS011;39569;51.090;-1.786;2024-03-17T08:10:28;11.55;;;2.17;;
53245;SDS011;39569;51.090;-1.786;2024-03-17T08:12:55;1.60;;;1.50;;
53245;SDS011;39569;51.090;-1.786;2024-03-17T08:15:22;1.90;;;1.73;;
53245;SDS011;39569;51.090;-1.786;2024-03-17T08:17:49;1.77;;;1.30;;
53245;SDS011;39569;51.090;-1.786;2024-03-17T08:20:17;5.95;;;2.67;;
53245;SDS011;39569;51.090;-1.786;2024-03-17T08:22:43;2.10;;;2.00;;
53245;SDS011;39569;51.090;-1.786;2024-03-17T08:25:10;2.08;;;1.88;;
53245;SDS011;39569;51.090;-1.786;2024-03-17T08:27:37;1.60;;;1.60;;
53245;SDS011;39569;51.090;-1.786;2024-03-17T08:30:04;2.50;;;1.55;;
53245;SDS011;39569;51.090;-1.786;2024-03-17T08:32:32;1.73;;;1.63;;
53245;SDS011;39569;51.090;-1.786;2024-03-17T08:34:59;2.28;;;1.63;;
53245;SDS011;39569;51.090;-1.786;2024-03-17T08:37:27;2.95;;;2.67;;
53245;SDS011;39569;51.090;-1.786;2024-03-17T08:39:54;3.15;;;1.85;;
53245;SDS011;39569;51.090;-1.786;2024-03-17T08:42:20;1.77;;;1.67;;
53245;SDS011;39569;51.090;-1.786;2024-03-17T08:44:47;1.75;;;1.65;;
53245;SDS011;39569;51.090;-1.786;2024-03-17T08:47:14;1.75;;;1.65;;
53245;SDS011;39569;51.090;-1.786;2024-03-17T08:49:40;1.60;;;1.50;;
53245;SDS011;39569;51.090;-1.786;2024-03-17T08:52:07;2.42;;;1.80;;
53245;SDS011;39569;51.090;-1.786;2024-03-17T08:54:35;3.03;;;1.73;;
53245;SDS011;39569;51.090;-1.786;2024-03-17T08:57:02;1.60;;;1.50;;
53245;SDS011;39569;51.090;-1.786;2024-03-17T08:59:29;1.75;;;1.65;;
53245;SDS011;39569;51.090;-1.786;2024-03-17T09:01:56;1.30;;;1.20;;
53245;SDS011;39569;51.090;-1.786;2024-03-17T09:04:23;2.30;;;2.20;;
53245;SDS011;39569;51.090;-1.786;2024-03-17T09:06:49;1.70;;;1.60;;
53245;SDS011;39569;51.090;-1.786;2024-03-17T09:09:19;5.32;;;2.75;;
53245;SDS011;39569;51.090;-1.786;2024-03-17T09:11:47;1.05;;;1.05;;
53245;SDS011;39569;51.090;-1.786;2024-03-17T09:14:14;2.72;;;2.58;;
53245;SDS011;39569;51.090;-1.786;2024-03-17T09:16:40;2.67;;;2.50;;
53245;SDS011;39569;51.090;-1.786;2024-03-17T09:19:07;3.47;;;2.88;;
53245;SDS011;39569;51.090;-1.786;2024-03-17T09:21:34;3.45;;;3.15;;
53245;SDS011;39569;51.090;-1.786;2024-03-17T09:24:03;2.85;;;2.65;;
53245;SDS011;39569;51.090;-1.786;2024-03-17T09:26:31;3.15;;;2.97;;
53245;SDS011;39569;51.090;-1.786;2024-03-17T09:29:00;2.25;;;2.15;;
53245;SDS011;39569;51.090;-1.786;2024-03-17T09:31:27;2.28;;;2.17;;
53245;SDS011;39569;51.090;-1.786;2024-03-17T09:33:55;2.67;;;2.47;;
53245;SDS011;39569;51.090;-1.786;2024-03-17T09:36:22;2.63;;;2.47;;
53245;SDS011;39569;51.090;-1.786;2024-03-17T09:38:49;2.90;;;2.70;;
53245;SDS011;39569;51.090;-1.786;2024-03-17T09:41:18;2.42;;;2.25;;
53245;SDS011;39569;51.090;-1.786;2024-03-17T09:43:47;4.18;;;3.88;;
53245;SDS011;39569;51.090;-1.786;2024-03-17T09:46:16;2.65;;;2.42;;
53245;SDS011;39569;51.090;-1.786;2024-03-17T09:48:44;3.45;;;2.42;;
53245;SDS011;39569;51.090;-1.786;2024-03-17T09:51:15;3.53;;;3.33;;
53245;SDS011;39569;51.090;-1.786;2024-03-17T09:53:45;3.58;;;3.25;;
53245;SDS011;39569;51.090;-1.786;2024-03-17T09:56:12;3.72;;;3.42;;
53245;SDS011;39569;51.090;-1.786;2024-03-17T09:58:41;2.97;;;2.78;;
53245;SDS011;39569;51.090;-1.786;2024-03-17T10:01:08;2.95;;;2.55;;
53245;SDS011;39569;51.090;-1.786;2024-03-17T10:03:43;3.85;;;3.55;;
53245;SDS011;39569;51.090;-1.786;2024-03-17T10:06:11;2.72;;;2.45;;
53245;SDS011;39569;51.090;-1.786;2024-03-17T10:08:42;5.63;;;3.83;;
53245;SDS011;39569;51.090;-1.786;2024-03-17T10:11:09;6.55;;;3.47;;
53245;SDS011;39569;51.090;-1.786;2024-03-17T10:13:38;2.67;;;2.47;;
53245;SDS011;39569;51.090;-1.786;2024-03-17T10:16:04;3.80;;;2.78;;
53245;SDS011;39569;51.090;-1.786;2024-03-17T10:18:31;5.40;;;2.60;;
53245;SDS011;39569;51.090;-1.786;2024-03-17T10:21:00;2.75;;;2.63;;
53245;SDS011;39569;51.090;-1.786;2024-03-17T10:23:27;3.35;;;3.05;;
53245;SDS011;39569;51.090;-1.786;2024-03-17T10:25:54;3.00;;;2.75;;
53245;SDS011;39569;51.090;-1.786;2024-03-17T10:28:21;2.72;;;2.53;;
53245;SDS011;39569;51.090;-1.786;2024-03-17T10:30:57;3.03;;;2.75;;
53245;SDS011;39569;51.090;-1.786;2024-03-17T10:33:24;1.52;;;1.42;;
53245;SDS011;39569;51.090;-1.786;2024-03-17T10:35:57;3.20;;;2.08;;
53245;SDS011;39569;51.090;-1.786;2024-03-17T10:38:26;1.80;;;1.70;;
53245;SDS011;39569;51.090;-1.786;2024-03-17T10:40:53;1.48;;;1.48;;
53245;SDS011;39569;51.090;-1.786;2024-03-17T10:43:20;1.73;;;1.63;;
53245;SDS011;39569;51.090;-1.786;2024-03-17T10:45:51;2.08;;;1.95;;
53245;SDS011;39569;51.090;-1.786;2024-03-17T10:48:19;1.30;;;1.20;;
53245;SDS011;39569;51.090;-1.786;2024-03-17T10:50:47;0.70;;;0.70;;
53245;SDS011;39569;51.090;-1.786;2024-03-17T10:53:18;1.70;;;1.20;;
53245;SDS011;39569;51.090;-1.786;2024-03-17T10:55:51;1.08;;;1.08;;
53245;SDS011;39569;51.090;-1.786;2024-03-17T10:58:28;0.90;;;0.90;;
53245;SDS011;39569;51.090;-1.786;2024-03-17T11:01:01;0.97;;;0.97;;
53245;SDS011;39569;51.090;-1.786;2024-03-17T11:03:29;0.85;;;0.85;;
53245;SDS011;39569;51.090;-1.786;2024-03-17T11:05:58;1.13;;;0.80;;
53245;SDS011;39569;51.090;-1.786;2024-03-17T11:08:27;1.00;;;1.00;;
53245;SDS011;39569;51.090;-1.786;2024-03-17T11:10:54;0.90;;;0.90;;
53245;SDS011;39569;51.090;-1.786;2024-03-17T11:13:24;0.63;;;0.63;;
53245;SDS011;39569;51.090;-1.786;2024-03-17T11:15:51;0.75;;;0.75;;
53245;SDS011;39569;51.090;-1.786;2024-03-17T11:21:19;2.00;;;1.80;;
53245;SDS011;39569;51.090;-1.786;2024-03-17T11:23:58;0.90;;;0.90;;
53245;SDS011;39569;51.090;-1.786;2024-03-17T11:26:27;0.52;;;0.52;;
53245;SDS011;39569;51.090;-1.786;2024-03-17T11:28:55;0.85;;;0.85;;
53245;SDS011;39569;51.090;-1.786;2024-03-17T11:31:39;0.85;;;0.65;;
53245;SDS011;39569;51.090;-1.786;2024-03-17T11:34:30;0.68;;;0.68;;
53245;SDS011;39569;51.090;-1.786;2024-03-17T11:37:02;0.68;;;0.68;;
53245;SDS011;39569;51.090;-1.786;2024-03-17T11:39:47;0.63;;;0.63;;
53245;SDS011;39569;51.090;-1.786;2024-03-17T11:42:21;0.60;;;0.60;;
53245;SDS011;39569;51.090;-1.786;2024-03-17T11:44:55;0.57;;;0.57;;
53245;SDS011;39569;51.090;-1.786;2024-03-17T11:47:33;0.57;;;0.57;;
53245;SDS011;39569;51.090;-1.786;2024-03-17T11:50:01;1.10;;;0.82;;
53245;SDS011;39569;51.090;-1.786;2024-03-17T11:52:29;0.65;;;0.65;;
53245;SDS011;39569;51.090;-1.786;2024-03-17T11:54:58;0.90;;;0.90;;
53245;SDS011;39569;51.090;-1.786;2024-03-17T11:57:25;0.60;;;0.60;;
53245;SDS011;39569;51.090;-1.786;2024-03-17T11:59:52;0.68;;;0.68;;
53245;SDS011;39569;51.090;-1.786;2024-03-17T12:02:20;0.93;;;0.93;;
53245;SDS011;39569;51.090;-1.786;2024-03-17T12:04:46;1.10;;;1.10;;
53245;SDS011;39569;51.090;-1.786;2024-03-17T12:07:15;0.90;;;0.90;;
53245;SDS011;39569;51.090;-1.786;2024-03-17T12:09:44;1.23;;;1.00;;
53245;SDS011;39569;51.090;-1.786;2024-03-17T12:12:16;0.65;;;0.65;;
53245;SDS011;39569;51.090;-1.786;2024-03-17T12:14:43;0.70;;;0.70;;
53245;SDS011;39569;51.090;-1.786;2024-03-17T12:17:10;0.88;;;0.88;;
53245;SDS011;39569;51.090;-1.786;2024-03-17T12:19:39;1.20;;;0.90;;
53245;SDS011;39569;51.090;-1.786;2024-03-17T12:22:07;0.65;;;0.60;;
53245;SDS011;39569;51.090;-1.786;2024-03-17T12:24:34;0.57;;;0.57;;
53245;SDS011;39569;51.090;-1.786;2024-03-17T12:27:04;3.13;;;1.33;;
53245;SDS011;39569;51.090;-1.786;2024-03-17T12:29:33;2.25;;;0.63;;
53245;SDS011;39569;51.090;-1.786;2024-03-17T12:32:06;0.65;;;0.55;;
53245;SDS011;39569;51.090;-1.786;2024-03-17T12:34:39;0.95;;;0.80;;
53245;SDS011;39569;51.090;-1.786;2024-03-17T12:37:07;0.88;;;0.88;;
53245;SDS011;39569;51.090;-1.786;2024-03-17T12:39:33;1.67;;;0.88;;
53245;SDS011;39569;51.090;-1.786;2024-03-17T12:42:04;1.55;;;1.45;;
53245;SDS011;39569;51.090;-1.786;2024-03-17T12:44:33;2.05;;;0.88;;
53245;SDS011;39569;51.090;-1.786;2024-03-17T12:47:01;1.45;;;0.47;;
53245;SDS011;39569;51.090;-1.786;2024-03-17T12:49:29;0.75;;;0.75;;
53245;SDS011;39569;51.090;-1.786;2024-03-17T12:51:57;0.20;;;0.20;;
53245;SDS011;39569;51.090;-1.786;2024-03-17T12:54:24;0.63;;;0.63;;
53245;SDS011;39569;51.090;-1.786;2024-03-17T12:56:52;0.55;;;0.55;;
53245;SDS011;39569;51.090;-1.786;2024-03-17T12:59:49;1.17;;;1.02;;
53245;SDS011;39569;51.090;-1.786;2024-03-17T13:02:33;0.60;;;0.50;;
53245;SDS011;39569;51.090;-1.786;2024-03-17T13:05:15;0.70;;;0.70;;
53245;SDS011;39569;51.090;-1.786;2024-03-17T13:07:44;1.75;;;0.55;;
53245;SDS011;39569;51.090;-1.786;2024-03-17T13:10:12;0.55;;;0.55;;
53245;SDS011;39569;51.090;-1.786;2024-03-17T13:12:39;0.63;;;0.40;;
53245;SDS011;39569;51.090;-1.786;2024-03-17T13:15:08;2.13;;;0.90;;
53245;SDS011;39569;51.090;-1.786;2024-03-17T13:17:36;0.65;;;0.65;;
53245;SDS011;39569;51.090;-1.786;2024-03-17T13:20:03;0.57;;;0.57;;
53245;SDS011;39569;51.090;-1.786;2024-03-17T13:22:33;0.88;;;0.85;;
53245;SDS011;39569;51.090;-1.786;2024-03-17T13:25:00;1.50;;;0.65;;
53245;SDS011;39569;51.090;-1.786;2024-03-17T13:27:27;1.38;;;0.77;;
53245;SDS011;39569;51.090;-1.786;2024-03-17T13:29:54;0.93;;;0.57;;
53245;SDS011;39569;51.090;-1.786;2024-03-17T13:32:22;0.80;;;0.43;;
53245;SDS011;39569;51.090;-1.786;2024-03-17T13:34:49;0.70;;;0.70;;
53245;SDS011;39569;51.090;-1.786;2024-03-17T13:37:16;1.75;;;1.27;;
53245;SDS011;39569;51.090;-1.786;2024-03-17T13:39:43;0.82;;;0.80;;
53245;SDS011;39569;51.090;-1.786;2024-03-17T13:42:09;0.90;;;0.80;;
53245;SDS011;39569;51.090;-1.786;2024-03-17T13:44:36;1.40;;;0.90;;
53245;SDS011;39569;51.090;-1.786;2024-03-17T13:47:03;3.45;;;1.38;;
53245;SDS011;39569;51.090;-1.786;2024-03-17T13:49:31;4.75;;;1.70;;
53245;SDS011;39569;51.090;-1.786;2024-03-17T13:51:58;2.30;;;1.55;;
53245;SDS011;39569;51.090;-1.786;2024-03-17T13:54:25;2.15;;;1.92;;
53245;SDS011;39569;51.090;-1.786;2024-03-17T13:56:52;1.75;;;1.10;;
53245;SDS011;39569;51.090;-1.786;2024-03-17T13:59:19;3.53;;;1.50;;
53245;SDS011;39569;51.090;-1.786;2024-03-17T14:01:47;3.42;;;1.85;;
53245;SDS011;39569;51.090;-1.786;2024-03-17T14:04:14;2.97;;;1.52;;
53245;SDS011;39569;51.090;-1.786;2024-03-17T14:06:43;2.22;;;1.52;;
53245;SDS011;39569;51.090;-1.786;2024-03-17T14:09:11;3.53;;;1.65;;
53245;SDS011;39569;51.090;-1.786;2024-03-17T14:11:37;2.72;;;1.17;;
53245;SDS011;39569;51.090;-1.786;2024-03-17T14:14:04;5.63;;;2.17;;
53245;SDS011;39569;51.090;-1.786;2024-03-17T14:16:31;2.50;;;2.28;;
53245;SDS011;39569;51.090;-1.786;2024-03-17T14:18:59;2.28;;;1.40;;
53245;SDS011;39569;51.090;-1.786;2024-03-17T14:21:26;1.60;;;1.48;;
53245;SDS011;39569;51.090;-1.786;2024-03-17T14:23:54;2.33;;;1.63;;
53245;SDS011;39569;51.090;-1.786;2024-03-17T14:26:21;1.77;;;1.33;;
53245;SDS011;39569;51.090;-1.786;2024-03-17T14:28:48;2.50;;;1.20;;
53245;SDS011;39569;51.090;-1.786;2024-03-17T14:31:16;2.08;;;1.35;;
53245;SDS011;39569;51.090;-1.786;2024-03-17T14:33:43;1.33;;;1.10;;
53245;SDS011;39569;51.090;-1.786;2024-03-17T14:36:10;2.78;;;1.52;;
53245;SDS011;39569;51.090;-1.786;2024-03-17T14:38:37;7.50;;;2.67;;
53245;SDS011;39569;51.090;-1.786;2024-03-17T14:41:05;1.75;;;0.90;;